Aérodrome :
LOGIN :

S'inscrire | Disclaimer

   EN    FR    IT 

 










Légende :    VFR   VFR Marginal   IFR   IFR Intensif   IFR Très Intensif
Visi : 
Plafond : 
>= 8 km
>= 3000ft
5 à 8 km
1000 à 3000 ft
1500m à 5 km
500 à 1000 ft
800 à 1500m
200 à 500 ft
< 800m
< 200 ft
Symboles :   Orages  Brouillard  Fortes neiges  Fortes précipitations  Vent > 20 kt
SIGMETs :   Divers  Orages  Givrage  Turbulence  Onde Orograph.  Cendres Volcan.






- Altitude de l'aérodrome : 300 ft
- Code IATA : MLA


LMML - Malta Luqa

DERNIER METAR :
  • 270515Z 30013KT 260V320 9999 FEW035 13/08 Q1016 NOSIG

METARs EXPIRÉS :
  • 270445Z 30017KT 9999 FEW035 13/08 Q1015 NOSIG
  • 270415Z 30015KT 9999 FEW038 13/07 Q1015 NOSIG
  • 270345Z 31012KT 9999 FEW019 13/07 Q1015 NOSIG
  • 270315Z 31020KT 9999 FEW019 13/08 Q1015 NOSIG
  • 270245Z 30015KT 9999 FEW018 13/10 Q1015 NOSIG

TAF TAF LMML
Valide du 27 à 06h jusqu'au 28 à 06h UTC


270500Z 2706/2806 31020G32KT 9999 FEW020
BECMG 2709/2712 30020KT
BECMG 2722/2801 27015KT
TEMPO 2802/2806 26020G30KT



MET'MAP, la Météo Aéronautique d'un coup d'oeil ! - Copyright ORBIFLY Décembre 2007 - Disclaimer

ORBIFLY MET'MAP TEAM :

Programmation & Développement : Alexandra Zaïnal
Sur une idée originale de : Baudouin d'Aumeries
Assistance à la programmation : Marc-Olivier Méhu
Soutien technique & logistique : Manuel Goepfert

Contact : metmap@orbifly.com




SOURCES & CREDITS :

   NOAA